createdAt,value
2023-01-07T00:01:25.802Z,43.27
2023-01-07T00:03:53.799Z,43.76
2023-01-07T00:06:23.312Z,42.98
2023-01-07T00:08:51.910Z,42.58
2023-01-07T00:11:21.330Z,42.57
2023-01-07T00:13:52.936Z,42.06
2023-01-07T00:16:22.516Z,43.48
2023-01-07T00:18:51.514Z,43.57
2023-01-07T00:21:19.787Z,43.75
2023-01-07T00:23:48.418Z,42.74
2023-01-07T00:26:19.191Z,43.05
2023-01-07T00:28:47.893Z,42.97
2023-01-07T00:31:19.979Z,42.45
2023-01-07T00:33:59.564Z,43.06
2023-01-07T00:36:28.868Z,43.19
2023-01-07T00:39:16.609Z,44.27
2023-01-07T00:42:04.399Z,44.28
2023-01-07T00:44:32.227Z,42.28
2023-01-07T00:47:00.128Z,42.47
2023-01-07T00:49:27.173Z,42.46
2023-01-07T00:51:53.977Z,43.01
2023-01-07T00:54:21.375Z,43.97
2023-01-07T00:56:48.144Z,44.16
2023-01-07T00:59:14.942Z,43.35
2023-01-07T01:01:43.588Z,43.40
2023-01-07T01:04:10.414Z,42.87
2023-01-07T01:06:37.282Z,43.22
2023-01-07T01:09:04.104Z,42.79
2023-01-07T01:11:30.939Z,43.47
2023-01-07T01:13:57.751Z,43.65
2023-01-07T01:16:24.534Z,43.61
2023-01-07T01:18:52.568Z,45.09
2023-01-07T01:21:19.396Z,43.81
2023-01-07T01:23:46.303Z,44.81
2023-01-07T01:26:15.679Z,45.26
2023-01-07T01:28:43.529Z,44.43
2023-01-07T01:31:11.497Z,44.46
2023-01-07T01:33:44.832Z,43.75
2023-01-07T01:36:13.225Z,43.71
2023-01-07T01:38:41.082Z,43.69
2023-01-07T01:41:08.540Z,44.21
2023-01-07T01:43:40.775Z,44.09
2023-01-07T01:46:15.319Z,44.59
2023-01-07T01:48:48.941Z,44.27
2023-01-07T01:51:20.582Z,45.01
2023-01-07T01:53:47.916Z,47.42
2023-01-07T01:56:19.705Z,47.19
2023-01-07T01:58:53.704Z,47.08
2023-01-07T02:01:20.881Z,47.54
2023-01-07T02:03:49.397Z,47.27
2023-01-07T02:06:25.130Z,46.35
2023-01-07T02:08:53.438Z,46.52
2023-01-07T02:11:55.972Z,46.76
2023-01-07T02:15:02.440Z,46.48
2023-01-07T02:17:54.195Z,48.47
2023-01-07T02:20:29.964Z,48.43
2023-01-07T02:23:37.788Z,48.56
2023-01-07T02:26:38.505Z,47.62
2023-01-07T02:29:20.417Z,47.33
2023-01-07T02:32:08.635Z,46.39
2023-01-07T02:34:39.748Z,46.15
2023-01-07T02:37:30.836Z,47.67
2023-01-07T02:40:29.815Z,47.12
2023-01-07T02:43:42.064Z,46.51
2023-01-07T02:46:23.406Z,45.89
2023-01-07T02:48:51.657Z,46.84
2023-01-07T02:51:18.626Z,46.86
2023-01-07T02:53:48.556Z,45.96
2023-01-07T02:56:22.864Z,46.17
2023-01-07T02:59:07.168Z,45.65
2023-01-07T03:02:14.073Z,46.08
2023-01-07T03:05:09.952Z,46.12
2023-01-07T03:07:46.049Z,47.04
2023-01-07T03:10:26.142Z,47.09
2023-01-07T03:13:07.162Z,46.48
2023-01-07T03:16:10.688Z,46.73
2023-01-07T03:18:43.320Z,46.11
2023-01-07T03:21:16.886Z,46.47
2023-01-07T03:23:51.955Z,46.12
2023-01-07T03:26:23.415Z,47.00
2023-01-07T03:28:52.500Z,47.63
2023-01-07T03:31:21.659Z,46.83
2023-01-07T03:33:58.336Z,46.81
2023-01-07T03:36:30.615Z,46.97
2023-01-07T03:38:58.871Z,46.42
2023-01-07T03:41:45.337Z,45.94
2023-01-07T03:44:13.375Z,46.46
2023-01-07T03:46:40.334Z,46.50
2023-01-07T03:49:07.171Z,46.14
2023-01-07T03:51:35.763Z,45.09
2023-01-07T03:54:02.657Z,45.44
2023-01-07T03:56:29.333Z,45.17
2023-01-07T03:58:56.876Z,45.01
2023-01-07T04:01:23.639Z,45.81
2023-01-07T04:03:50.664Z,45.21
2023-01-07T04:06:17.421Z,45.79
2023-01-07T04:08:44.350Z,45.94
2023-01-07T04:11:11.221Z,46.29
2023-01-07T04:13:38.501Z,46.41
2023-01-07T04:16:07.674Z,46.45
2023-01-07T04:18:34.437Z,46.51
2023-01-07T04:21:01.249Z,46.60
2023-01-07T04:23:28.955Z,45.92
2023-01-07T04:25:56.074Z,45.41
2023-01-07T04:28:24.895Z,45.88
2023-01-07T04:30:52.172Z,45.83
2023-01-07T04:33:19.726Z,45.53
2023-01-07T04:35:47.628Z,45.37
2023-01-07T04:38:15.618Z,45.77
2023-01-07T04:40:42.773Z,46.25
2023-01-07T04:43:10.037Z,45.45
2023-01-07T04:45:36.941Z,45.76
2023-01-07T04:48:03.933Z,46.58
2023-01-07T04:50:30.896Z,46.50
2023-01-07T04:52:57.950Z,46.48
2023-01-07T04:55:24.927Z,46.02
2023-01-07T04:57:51.640Z,46.28
2023-01-07T05:00:18.944Z,45.97
2023-01-07T05:02:48.681Z,46.46
2023-01-07T05:05:16.540Z,46.01
2023-01-07T05:07:44.329Z,46.90
2023-01-07T05:10:12.098Z,47.03
2023-01-07T05:12:39.358Z,46.15
2023-01-07T05:15:09.148Z,46.59
2023-01-07T05:17:39.055Z,46.99
2023-01-07T05:20:08.238Z,47.40
2023-01-07T05:22:36.997Z,47.37
2023-01-07T05:25:03.949Z,47.21
2023-01-07T05:27:31.901Z,46.95
2023-01-07T05:29:59.973Z,46.48
2023-01-07T05:32:26.799Z,46.18
2023-01-07T05:34:53.632Z,47.53
2023-01-07T05:37:21.206Z,46.47
2023-01-07T05:39:48.058Z,46.27
2023-01-07T05:42:18.450Z,46.57
2023-01-07T05:44:45.601Z,46.28
2023-01-07T05:47:12.520Z,46.61
2023-01-07T05:49:39.333Z,46.28
2023-01-07T05:52:06.098Z,46.33
2023-01-07T05:54:32.779Z,45.82
2023-01-07T05:56:59.596Z,46.23
2023-01-07T05:59:26.381Z,46.22
2023-01-07T06:01:53.097Z,45.74
2023-01-07T06:04:20.235Z,44.98
2023-01-07T06:06:46.937Z,45.72
2023-01-07T06:09:13.707Z,45.82
2023-01-07T06:11:40.478Z,46.68
2023-01-07T06:14:07.300Z,46.68
2023-01-07T06:16:34.110Z,46.93
2023-01-07T06:19:00.954Z,46.66
2023-01-07T06:21:27.725Z,46.04
2023-01-07T06:23:55.730Z,46.71
2023-01-07T06:26:22.906Z,47.12
2023-01-07T06:28:51.774Z,46.36
2023-01-07T06:31:18.656Z,46.40
2023-01-07T06:33:45.452Z,45.72
2023-01-07T06:36:12.502Z,46.09
2023-01-07T06:38:39.339Z,45.02
2023-01-07T06:41:06.188Z,45.94
2023-01-07T06:43:33.002Z,45.35
2023-01-07T06:46:00.701Z,46.23
2023-01-07T06:48:28.482Z,46.03
2023-01-07T06:50:55.266Z,46.04
2023-01-07T06:53:22.163Z,45.02
2023-01-07T06:55:50.165Z,45.15
2023-01-07T06:58:17.763Z,44.98
2023-01-07T07:00:45.347Z,45.50
2023-01-07T07:03:12.206Z,44.92
2023-01-07T07:05:39.071Z,45.17
2023-01-07T07:08:06.911Z,44.77
2023-01-07T07:10:33.994Z,44.89
2023-01-07T07:13:00.728Z,44.33
2023-01-07T07:15:27.594Z,44.87
2023-01-07T07:17:54.329Z,44.02
2023-01-07T07:20:21.508Z,46.21
2023-01-07T07:22:48.903Z,45.91
2023-01-07T07:25:15.964Z,44.56
2023-01-07T07:27:46.281Z,44.75
2023-01-07T07:30:15.169Z,44.27
2023-01-07T07:32:42.933Z,43.89
2023-01-07T07:35:10.711Z,43.93
2023-01-07T07:37:38.084Z,43.80
2023-01-07T07:40:06.223Z,44.19
2023-01-07T07:42:33.000Z,44.82
2023-01-07T07:45:19.949Z,45.30
2023-01-07T07:47:47.168Z,43.98
2023-01-07T07:50:14.051Z,44.60
2023-01-07T07:52:41.930Z,43.74
2023-01-07T07:55:20.335Z,43.20
2023-01-07T07:57:54.952Z,42.86
2023-01-07T08:00:21.903Z,42.93
2023-01-07T08:02:48.805Z,43.36
2023-01-07T08:05:15.588Z,43.40
2023-01-07T08:07:42.827Z,42.96
2023-01-07T08:10:09.889Z,42.41
2023-01-07T08:12:38.441Z,42.12
2023-01-07T08:15:07.037Z,42.94
2023-01-07T08:17:34.179Z,42.41
2023-01-07T08:20:00.935Z,41.95
2023-01-07T08:22:27.811Z,41.50
2023-01-07T08:24:54.654Z,41.13
2023-01-07T08:27:21.475Z,41.71
2023-01-07T08:29:48.262Z,41.10
2023-01-07T08:32:15.410Z,40.61
2023-01-07T08:34:42.087Z,40.94
2023-01-07T08:37:08.796Z,40.52
2023-01-07T08:39:35.576Z,40.45
2023-01-07T08:42:02.313Z,39.36
2023-01-07T08:44:29.249Z,39.44
2023-01-07T08:46:56.185Z,38.94
2023-01-07T08:49:23.228Z,38.42
2023-01-07T08:51:50.088Z,38.25
2023-01-07T08:54:16.869Z,37.05
2023-01-07T08:56:43.770Z,37.15
2023-01-07T08:59:10.903Z,36.05
2023-01-07T09:01:37.807Z,35.52
2023-01-07T09:04:05.049Z,35.64
2023-01-07T09:06:31.783Z,34.86
2023-01-07T09:08:58.484Z,35.47
2023-01-07T09:11:25.458Z,35.95
2023-01-07T09:13:52.271Z,36.21
2023-01-07T09:16:19.430Z,35.36
2023-01-07T09:18:46.234Z,35.38
2023-01-07T09:21:13.008Z,34.98
2023-01-07T09:23:40.429Z,35.20
2023-01-07T09:26:07.404Z,34.89
2023-01-07T09:28:34.197Z,34.96
2023-01-07T09:31:02.041Z,34.29
2023-01-07T09:33:30.347Z,34.17
2023-01-07T09:35:57.151Z,34.19
2023-01-07T09:38:23.991Z,33.73
2023-01-07T09:40:51.350Z,33.46
2023-01-07T09:44:00.306Z,35.22
2023-01-07T09:46:28.479Z,37.34
2023-01-07T09:49:01.305Z,34.82
2023-01-07T09:51:35.439Z,34.24
2023-01-07T09:54:05.214Z,34.50
2023-01-07T09:56:34.717Z,33.33
2023-01-07T09:59:03.340Z,33.71
2023-01-07T10:01:48.415Z,32.89
2023-01-07T10:04:16.210Z,32.40
2023-01-07T10:07:22.084Z,33.04
2023-01-07T10:10:08.223Z,33.41
2023-01-07T10:12:40.806Z,32.92
2023-01-07T10:15:31.928Z,33.47
2023-01-07T10:18:12.521Z,32.90
2023-01-07T10:21:18.185Z,33.30
2023-01-07T10:24:10.752Z,34.30
2023-01-07T10:26:45.092Z,33.98
2023-01-07T10:29:20.009Z,34.24
2023-01-07T10:31:48.480Z,35.16
2023-01-07T10:34:25.193Z,34.31
2023-01-07T10:36:57.541Z,33.95
2023-01-07T10:39:36.435Z,34.72
2023-01-07T10:42:35.568Z,34.07
2023-01-07T10:45:11.255Z,33.64
2023-01-07T10:47:41.015Z,34.11
2023-01-07T10:50:26.320Z,34.41
2023-01-07T10:53:08.002Z,33.79
2023-01-07T10:55:58.336Z,33.64
2023-01-07T10:58:32.978Z,34.09
2023-01-07T11:01:00.346Z,33.78
2023-01-07T11:03:27.657Z,34.06
2023-01-07T11:05:59.712Z,33.68
2023-01-07T11:08:36.797Z,33.52
2023-01-07T11:11:05.130Z,33.47
2023-01-07T11:13:35.481Z,33.34
2023-01-07T11:16:10.370Z,33.08
2023-01-07T11:19:03.020Z,33.36
2023-01-07T11:21:52.410Z,33.36
2023-01-07T11:24:19.161Z,32.89
2023-01-07T11:26:46.649Z,34.03
2023-01-07T11:29:24.308Z,33.87
2023-01-07T11:31:58.918Z,34.01
2023-01-07T11:34:32.235Z,34.20
2023-01-07T11:36:59.130Z,34.09
2023-01-07T11:39:35.068Z,33.60
2023-01-07T11:42:36.010Z,33.23
2023-01-07T11:45:17.626Z,33.77
2023-01-07T11:47:58.500Z,33.89
2023-01-07T11:50:34.794Z,32.88
2023-01-07T11:53:14.662Z,33.03
2023-01-07T11:56:06.493Z,32.70
2023-01-07T11:58:43.277Z,31.53
2023-01-07T12:01:12.687Z,30.62
2023-01-07T12:03:52.271Z,30.12
2023-01-07T12:06:20.365Z,29.64
2023-01-07T12:09:03.374Z,28.77
2023-01-07T12:11:33.387Z,28.30
2023-01-07T12:14:23.716Z,28.64
2023-01-07T12:16:51.951Z,26.47
2023-01-07T12:20:06.775Z,25.12
2023-01-07T12:23:14.713Z,26.15
2023-01-07T12:25:59.978Z,26.13
2023-01-07T12:28:53.141Z,25.22
2023-01-07T12:31:39.840Z,24.85
2023-01-07T12:34:32.887Z,25.35
2023-01-07T12:37:10.625Z,25.40
2023-01-07T12:39:44.988Z,24.49
2023-01-07T12:42:23.520Z,23.31
2023-01-07T12:44:56.767Z,23.70
2023-01-07T12:47:52.585Z,23.91
2023-01-07T12:50:44.037Z,24.12
2023-01-07T12:53:55.463Z,23.35
2023-01-07T12:56:34.645Z,22.38
2023-01-07T12:59:46.875Z,21.62
2023-01-07T13:02:37.586Z,20.93
2023-01-07T13:05:23.711Z,21.39
2023-01-07T13:08:04.173Z,22.34
2023-01-07T13:10:38.464Z,21.87
2023-01-07T13:13:18.475Z,21.17
2023-01-07T13:15:45.456Z,21.23
2023-01-07T13:18:12.082Z,20.39
2023-01-07T13:20:55.123Z,21.32
2023-01-07T13:23:36.525Z,20.74
2023-01-07T13:26:06.008Z,21.10
2023-01-07T13:29:04.987Z,21.59
2023-01-07T13:31:44.210Z,21.71
2023-01-07T13:34:48.013Z,23.35
2023-01-07T13:37:47.967Z,24.58
2023-01-07T13:40:25.443Z,25.86
2023-01-07T13:43:24.097Z,26.47
2023-01-07T13:46:02.820Z,26.89
2023-01-07T13:48:29.857Z,28.76
2023-01-07T13:51:06.075Z,29.58
2023-01-07T13:53:53.083Z,30.15
2023-01-07T13:56:20.973Z,29.91
2023-01-07T13:58:53.293Z,29.06
2023-01-07T14:01:21.711Z,29.14
2023-01-07T14:03:55.681Z,29.36
2023-01-07T14:06:23.722Z,30.96
2023-01-07T14:09:27.574Z,30.48
2023-01-07T14:12:12.839Z,30.34
2023-01-07T14:14:51.491Z,29.77
2023-01-07T14:17:18.346Z,30.34
2023-01-07T14:20:17.279Z,30.15
2023-01-07T14:22:50.204Z,30.46
2023-01-07T14:25:49.035Z,30.34
2023-01-07T14:28:27.595Z,30.97
2023-01-07T14:30:56.197Z,31.69
2023-01-07T14:33:40.097Z,31.52
2023-01-07T14:36:09.417Z,31.95
2023-01-07T14:38:36.091Z,31.75
2023-01-07T14:41:09.123Z,31.31
2023-01-07T14:43:51.652Z,32.46
2023-01-07T14:46:24.436Z,33.23
2023-01-07T14:49:03.390Z,32.36
2023-01-07T14:51:36.245Z,33.06
2023-01-07T14:54:28.150Z,33.42
2023-01-07T14:57:00.412Z,33.26
2023-01-07T15:00:15.232Z,33.68
2023-01-07T15:03:02.320Z,34.79
2023-01-07T15:06:06.505Z,35.17
2023-01-07T15:09:06.736Z,36.09
2023-01-07T15:11:53.417Z,35.38
2023-01-07T15:14:38.971Z,35.90
2023-01-07T15:17:06.990Z,36.06
2023-01-07T15:19:39.067Z,35.42
2023-01-07T15:22:18.441Z,36.15
2023-01-07T15:25:22.750Z,36.40
2023-01-07T15:28:14.293Z,36.35
2023-01-07T15:30:51.435Z,36.92
2023-01-07T15:33:57.363Z,37.64
2023-01-07T15:36:24.917Z,38.43
2023-01-07T15:38:55.145Z,37.53
2023-01-07T15:41:26.555Z,37.65
2023-01-07T15:43:54.029Z,37.29
2023-01-07T15:46:22.775Z,37.32
2023-01-07T15:49:15.798Z,37.43
2023-01-07T15:51:45.579Z,36.87
2023-01-07T15:54:26.006Z,37.11
2023-01-07T15:56:56.296Z,37.85
2023-01-07T15:59:35.351Z,37.10
2023-01-07T16:02:37.468Z,37.67
2023-01-07T16:05:13.394Z,37.68
2023-01-07T16:07:57.885Z,37.70
2023-01-07T16:10:27.227Z,38.15
2023-01-07T16:12:56.794Z,38.66
2023-01-07T16:15:32.702Z,37.74
2023-01-07T16:18:01.994Z,38.23
2023-01-07T16:20:37.842Z,37.39
2023-01-07T16:23:21.239Z,37.55
2023-01-07T16:26:04.786Z,37.55
2023-01-07T16:28:41.568Z,37.52
2023-01-07T16:31:12.745Z,38.04
2023-01-07T16:33:42.180Z,37.99
2023-01-07T16:36:16.258Z,37.85
2023-01-07T16:38:45.531Z,38.09
2023-01-07T16:41:24.349Z,37.82
2023-01-07T16:43:54.403Z,37.88
2023-01-07T16:46:27.288Z,38.57
2023-01-07T16:49:09.846Z,38.03
2023-01-07T16:51:52.605Z,38.34
2023-01-07T16:54:30.660Z,38.90
2023-01-07T16:57:04.113Z,38.52
2023-01-07T16:59:37.311Z,37.82
2023-01-07T17:02:33.579Z,37.87
2023-01-07T17:05:20.154Z,37.57
2023-01-07T17:07:51.345Z,37.41
2023-01-07T17:10:27.300Z,37.51
2023-01-07T17:12:58.947Z,37.81
2023-01-07T17:15:31.613Z,37.79
2023-01-07T17:18:14.509Z,37.91
2023-01-07T17:20:53.589Z,37.77
2023-01-07T17:23:26.707Z,38.81
2023-01-07T17:26:05.521Z,38.29
2023-01-07T17:28:37.554Z,38.38
2023-01-07T17:31:07.034Z,38.72
2023-01-07T17:33:36.646Z,38.58
2023-01-07T17:36:03.733Z,38.84
2023-01-07T17:38:30.476Z,38.67
2023-01-07T17:40:58.592Z,39.91
2023-01-07T17:43:37.595Z,39.51
2023-01-07T17:46:11.431Z,39.94
2023-01-07T17:48:38.829Z,40.06
2023-01-07T17:51:07.255Z,40.39
2023-01-07T17:53:42.641Z,40.49
2023-01-07T17:56:09.466Z,40.69
2023-01-07T17:58:38.422Z,40.82
2023-01-07T18:01:10.847Z,39.87
2023-01-07T18:03:37.954Z,41.43
2023-01-07T18:06:20.355Z,40.37
2023-01-07T18:08:49.203Z,40.78
2023-01-07T18:11:38.237Z,40.11
2023-01-07T18:14:06.133Z,40.06
2023-01-07T18:16:33.612Z,40.50
2023-01-07T18:19:00.529Z,40.61
2023-01-07T18:21:27.418Z,40.59
2023-01-07T18:23:54.254Z,40.22
2023-01-07T18:26:22.641Z,40.47
2023-01-07T18:28:49.556Z,40.31
2023-01-07T18:31:16.657Z,40.40
2023-01-07T18:33:43.724Z,40.12
2023-01-07T18:36:11.727Z,39.50
2023-01-07T18:38:39.510Z,39.81
2023-01-07T18:41:06.379Z,39.45
2023-01-07T18:43:33.500Z,39.65
2023-01-07T18:46:00.467Z,40.07
2023-01-07T18:48:27.361Z,40.07
2023-01-07T18:50:54.108Z,40.61
2023-01-07T18:53:22.436Z,39.79
2023-01-07T18:55:59.285Z,39.94
2023-01-07T18:58:26.862Z,39.92
2023-01-07T19:00:54.131Z,39.84
2023-01-07T19:03:21.483Z,40.38
2023-01-07T19:05:48.202Z,40.18
2023-01-07T19:08:16.157Z,39.95
2023-01-07T19:10:44.883Z,40.19
2023-01-07T19:13:11.780Z,40.15
2023-01-07T19:15:40.282Z,40.28
2023-01-07T19:18:07.896Z,40.35
2023-01-07T19:20:35.551Z,41.25
2023-01-07T19:23:02.554Z,41.12
2023-01-07T19:25:30.813Z,40.77
2023-01-07T19:27:58.114Z,41.09
2023-01-07T19:30:25.619Z,40.79
2023-01-07T19:32:53.301Z,40.82
2023-01-07T19:35:20.373Z,41.14
2023-01-07T19:37:47.146Z,41.78
2023-01-07T19:40:14.143Z,43.18
2023-01-07T19:42:40.876Z,42.30
2023-01-07T19:45:08.342Z,41.84
2023-01-07T19:47:36.278Z,43.09
2023-01-07T19:50:03.385Z,44.43
2023-01-07T19:52:30.058Z,43.75
2023-01-07T19:54:58.913Z,42.85
2023-01-07T19:57:25.659Z,42.49
2023-01-07T19:59:52.519Z,42.00
2023-01-07T20:02:19.359Z,41.76
2023-01-07T20:04:47.320Z,41.23
2023-01-07T20:07:14.554Z,40.97
2023-01-07T20:09:41.521Z,40.65
2023-01-07T20:12:08.298Z,40.86
2023-01-07T20:14:35.338Z,41.23
2023-01-07T20:17:02.112Z,41.31
2023-01-07T20:19:30.307Z,41.13
2023-01-07T20:21:57.077Z,40.86
2023-01-07T20:24:24.957Z,41.43
2023-01-07T20:26:54.428Z,41.02
2023-01-07T20:29:22.609Z,41.07
2023-01-07T20:31:49.517Z,41.19
2023-01-07T20:34:16.463Z,41.49
2023-01-07T20:36:43.391Z,40.95
2023-01-07T20:39:10.164Z,42.07
2023-01-07T20:41:38.877Z,41.57
2023-01-07T20:44:08.827Z,42.19
2023-01-07T20:46:35.715Z,42.19
2023-01-07T20:49:02.815Z,42.01
2023-01-07T20:51:29.754Z,41.84
2023-01-07T20:53:56.853Z,41.95
2023-01-07T20:56:24.807Z,41.92
2023-01-07T20:58:52.113Z,40.96
2023-01-07T21:01:21.335Z,41.09
2023-01-07T21:03:48.887Z,40.68
2023-01-07T21:06:18.714Z,40.96
2023-01-07T21:08:47.397Z,41.13
2023-01-07T21:11:16.860Z,41.11
2023-01-07T21:13:43.848Z,41.64
2023-01-07T21:16:11.059Z,41.51
2023-01-07T21:18:38.052Z,42.35
2023-01-07T21:21:14.082Z,42.04
2023-01-07T21:23:41.773Z,42.70
2023-01-07T21:26:09.339Z,42.38
2023-01-07T21:28:36.301Z,41.86
2023-01-07T21:31:11.471Z,42.43
2023-01-07T21:33:39.865Z,44.48
2023-01-07T21:36:11.663Z,43.52
2023-01-07T21:38:38.942Z,43.17
2023-01-07T21:41:11.439Z,43.47
2023-01-07T21:43:38.552Z,42.59
2023-01-07T21:46:06.684Z,42.54
2023-01-07T21:48:38.764Z,42.36
2023-01-07T21:51:10.707Z,42.47
2023-01-07T21:53:37.640Z,43.20
2023-01-07T21:56:09.996Z,43.09
2023-01-07T21:58:37.782Z,43.00
2023-01-07T22:01:05.836Z,43.51
2023-01-07T22:03:33.483Z,43.21
2023-01-07T22:06:06.843Z,42.83
2023-01-07T22:08:34.220Z,43.25
2023-01-07T22:11:02.228Z,42.63
2023-01-07T22:13:29.117Z,42.88
2023-01-07T22:15:56.111Z,42.57
2023-01-07T22:18:22.993Z,42.75
2023-01-07T22:20:56.129Z,43.05
2023-01-07T22:23:23.696Z,43.03
2023-01-07T22:25:50.749Z,43.51
2023-01-07T22:28:21.874Z,42.86
2023-01-07T22:30:57.427Z,42.82
2023-01-07T22:33:24.359Z,42.82
2023-01-07T22:35:51.853Z,42.81
2023-01-07T22:38:22.637Z,42.63
2023-01-07T22:40:49.772Z,42.88
2023-01-07T22:43:19.727Z,42.35
2023-01-07T22:46:01.036Z,43.34
2023-01-07T22:48:31.860Z,43.53
2023-01-07T22:51:05.155Z,43.58
2023-01-07T22:53:32.751Z,43.46
2023-01-07T22:56:00.395Z,44.19
2023-01-07T22:58:27.132Z,44.42
2023-01-07T23:00:53.858Z,44.07
2023-01-07T23:03:22.811Z,44.39
2023-01-07T23:05:50.009Z,43.93
2023-01-07T23:08:17.588Z,44.33
2023-01-07T23:10:44.767Z,43.62
2023-01-07T23:13:12.275Z,44.61
2023-01-07T23:15:39.688Z,44.41
2023-01-07T23:18:08.554Z,43.94
2023-01-07T23:20:39.666Z,44.12
2023-01-07T23:23:06.635Z,44.09
2023-01-07T23:25:33.547Z,44.26
2023-01-07T23:28:00.364Z,43.93
2023-01-07T23:30:26.992Z,43.99
2023-01-07T23:32:54.007Z,43.96
2023-01-07T23:35:20.768Z,44.49
2023-01-07T23:37:47.425Z,44.51
2023-01-07T23:40:14.242Z,44.27
2023-01-07T23:42:45.409Z,44.21
2023-01-07T23:45:12.233Z,44.81
2023-01-07T23:47:38.948Z,44.81
2023-01-07T23:50:07.511Z,45.40
2023-01-07T23:52:34.726Z,45.17
2023-01-07T23:55:01.476Z,44.88
2023-01-07T23:57:28.205Z,45.29
2023-01-07T23:59:55.066Z,45.61
